Time;durP1;ratioP1;P1;durP2;ratioP2;P2;SDS_P1;SDS_P2;PMS_P1;PMS_P2;Temp;Humidity;BMP_temperature;BMP_pressure;BME280_temperature;BME280_humidity;BME280_pressure;Samples;Min_cycle;Max_cycle;Signal;HPM_P1;HPM_P2
2022/02/26 00:01:20;;;;;;;;;;;;;;;0.68;87.30;100275.56;4860959;29;19963;-65
2022/02/26 00:03:45;;;;;;;;;;;;;;;0.71;86.98;100285.00;4861225;29;19940;-65
2022/02/26 00:06:11;;;;;;;;;;;;;;;0.76;87.09;100296.81;4861205;29;19924;-66
2022/02/26 00:08:36;;;;;;;;;;;;;;;0.75;86.71;100295.16;4861071;29;19924;-65
2022/02/26 00:11:02;;;;;;;;;;;;;;;0.75;86.56;100296.94;4860997;29;19980;-64
2022/02/26 00:13:27;;;;;;;;;;;;;;;0.75;86.34;100310.03;4860248;29;20368;-64
2022/02/26 00:15:52;;;;;;;;;;;;;;;0.77;86.70;100311.59;4860963;29;19924;-65
2022/02/26 00:18:18;;;;;;;;;;;;;;;0.76;86.49;100325.66;4844565;29;19981;-67
2022/02/26 00:20:45;;;;;;;;;;;;;;;0.78;86.79;100334.25;4860957;29;19976;-65
2022/02/26 00:23:10;;;;;;;;;;;;;;;0.80;86.62;100345.44;4860840;29;19974;-65
2022/02/26 00:25:36;;;;;;;;;;;;;;;0.79;86.86;100346.41;4860698;29;19968;-68
2022/02/26 00:28:02;;;;;;;;;;;;;;;0.79;86.52;100351.63;4860701;29;20380;-67
2022/02/26 00:30:27;;;;;;;;;;;;;;;0.80;86.51;100361.19;4860644;29;20289;-64
2022/02/26 00:32:52;;;;;;;;;;;;;;;0.78;86.62;100372.72;4860847;29;19924;-67
2022/02/26 00:35:18;;;;;;;;;;;;;;;0.78;86.63;100375.34;4860764;29;19924;-70
2022/02/26 00:37:43;;;;;;;;;;;;;;;0.77;87.16;100381.53;4844013;29;19976;-67
2022/02/26 00:40:09;;;;;;;;;;;;;;;0.75;87.14;100380.81;4860503;29;19924;-69
2022/02/26 00:42:34;;;;;;;;;;;;;;;0.74;87.31;100398.31;4860312;29;19935;-64
2022/02/26 00:45:00;;;;;;;;;;;;;;;0.75;87.41;100397.38;4860546;29;19924;-63
2022/02/26 00:47:25;;;;;;;;;;;;;;;0.73;87.03;100409.75;4860596;29;19931;-64
2022/02/26 00:49:51;;;;;;;;;;;;;;;0.73;87.55;100425.47;4843978;29;19959;-65
2022/02/26 00:52:18;;;;;;;;;;;;;;;0.72;87.41;100426.44;4860563;29;19924;-63
2022/02/26 00:54:44;;;;;;;;;;;;;;;0.70;87.65;100441.41;4860549;29;19931;-68
2022/02/26 00:57:14;;;;;;;;;;;;;;;0.68;87.25;100451.19;4860303;29;19938;-66
2022/02/26 00:59:40;;;;;;;;;;;;;;;0.70;87.52;100451.91;4860279;29;19924;-69
2022/02/26 01:02:06;;;;;;;;;;;;;;;0.71;87.52;100447.50;4860252;29;19924;-64
2022/02/26 01:04:32;;;;;;;;;;;;;;;0.70;87.33;100467.63;4860620;29;19924;-67
2022/02/26 01:06:57;;;;;;;;;;;;;;;0.71;87.28;100460.59;4860117;29;19924;-64
2022/02/26 01:09:23;;;;;;;;;;;;;;;0.70;87.50;100472.88;4860029;29;19925;-63
2022/02/26 01:11:48;;;;;;;;;;;;;;;0.69;87.52;100489.53;4860090;29;20006;-62
2022/02/26 01:14:13;;;;;;;;;;;;;;;0.67;87.17;100499.28;4860058;29;19929;-68
2022/02/26 01:16:39;;;;;;;;;;;;;;;0.66;87.31;100502.88;4860287;29;19924;-68
2022/02/26 01:19:05;;;;;;;;;;;;;;;0.65;87.37;100503.81;4843358;29;19935;-67
2022/02/26 01:21:31;;;;;;;;;;;;;;;0.64;87.53;100511.78;4859658;29;19928;-63
2022/02/26 01:23:58;;;;;;;;;;;;;;;0.64;87.57;100506.53;4860297;29;19928;-68
2022/02/26 01:26:23;;;;;;;;;;;;;;;0.61;87.92;100528.56;4849501;29;19928;-66
2022/02/26 01:28:50;;;;;;;;;;;;;;;0.61;87.62;100536.41;4865951;29;19924;-65
2022/02/26 01:31:15;;;;;;;;;;;;;;;0.65;87.76;100529.19;4866319;29;19996;-67
2022/02/26 01:33:41;;;;;;;;;;;;;;;0.67;87.53;100540.41;4849750;29;19971;-67
2022/02/26 01:36:07;;;;;;;;;;;;;;;0.68;87.19;100552.56;4866711;29;20312;-66
2022/02/26 01:38:33;;;;;;;;;;;;;;;0.73;87.11;100559.16;4865974;29;19967;-63
2022/02/26 01:40:58;;;;;;;;;;;;;;;0.72;86.61;100567.97;4865937;29;19972;-69
2022/02/26 01:43:24;;;;;;;;;;;;;;;0.75;86.75;100565.13;4865811;29;19924;-67
2022/02/26 01:45:50;;;;;;;;;;;;;;;0.74;86.64;100579.19;4865889;29;19924;-66
2022/02/26 01:48:16;;;;;;;;;;;;;;;0.75;86.77;100591.34;4866157;29;20047;-69
2022/02/26 01:50:41;;;;;;;;;;;;;;;0.79;86.18;100599.84;4866091;29;20449;-67
2022/02/26 01:53:07;;;;;;;;;;;;;;;0.75;86.05;100609.69;4849209;29;19953;-65
2022/02/26 01:55:33;;;;;;;;;;;;;;;0.76;86.18;100611.38;4849294;29;20320;-63
2022/02/26 01:58:00;;;;;;;;;;;;;;;0.80;85.80;100614.63;4866034;29;19935;-67
2022/02/26 02:00:26;;;;;;;;;;;;;;;0.82;85.89;100631.09;4849600;29;19924;-67
2022/02/26 02:02:53;;;;;;;;;;;;;;;0.81;85.21;100640.72;4850169;29;19928;-65
2022/02/26 02:05:18;;;;;;;;;;;;;;;0.80;85.08;100641.66;4849747;29;19949;-66
2022/02/26 02:07:44;;;;;;;;;;;;;;;0.79;85.07;100660.13;4865989;29;20027;-64
2022/02/26 02:10:10;;;;;;;;;;;;;;;0.81;84.97;100663.47;4865891;29;19924;-62
2022/02/26 02:12:35;;;;;;;;;;;;;;;0.78;84.52;100679.41;4866028;29;19957;-69
2022/02/26 02:15:01;;;;;;;;;;;;;;;0.77;84.63;100689.06;4866048;29;20019;-67
2022/02/26 02:17:26;;;;;;;;;;;;;;;0.78;84.53;100696.00;4865960;29;19994;-65
2022/02/26 02:19:53;;;;;;;;;;;;;;;0.75;84.38;100703.22;4865800;29;20052;-65
2022/02/26 02:22:19;;;;;;;;;;;;;;;0.75;84.60;100721.56;4865946;29;20060;-66
2022/02/26 02:24:45;;;;;;;;;;;;;;;0.75;84.64;100717.16;4868028;29;20049;-66
2022/02/26 02:27:11;;;;;;;;;;;;;;;0.72;84.24;100721.78;4870280;29;19924;-63
2022/02/26 02:29:37;;;;;;;;;;;;;;;0.74;84.09;100727.75;4867552;29;20407;-62
2022/02/26 02:32:02;;;;;;;;;;;;;;;0.75;84.63;100748.63;4867043;29;19924;-65
2022/02/26 02:34:28;;;;;;;;;;;;;;;0.74;84.42;100744.31;4866466;29;20411;-66
2022/02/26 02:36:53;;;;;;;;;;;;;;;0.75;84.06;100758.28;4863846;29;19924;-68
2022/02/26 02:39:19;;;;;;;;;;;;;;;0.75;84.05;100766.97;4866008;29;19931;-71
2022/02/26 02:41:45;;;;;;;;;;;;;;;0.76;83.69;100786.16;4865185;29;19928;-68
2022/02/26 02:44:13;;;;;;;;;;;;;;;0.75;83.99;100780.06;4863024;29;19971;-66
2022/02/26 02:46:39;;;;;;;;;;;;;;;0.77;84.24;100783.44;4862657;29;19980;-68
2022/02/26 02:49:04;;;;;;;;;;;;;;;0.77;83.72;100793.94;4862512;29;20106;-67
2022/02/26 02:51:30;;;;;;;;;;;;;;;0.73;83.72;100796.84;4865411;29;19931;-73
2022/02/26 02:53:55;;;;;;;;;;;;;;;0.75;83.84;100800.22;4866425;29;19931;-70
2022/02/26 02:56:20;;;;;;;;;;;;;;;0.72;83.57;100814.34;4864518;29;19924;-67
2022/02/26 02:58:47;;;;;;;;;;;;;;;0.74;84.06;100815.09;4863811;29;19928;-68
2022/02/26 03:01:12;;;;;;;;;;;;;;;0.76;83.49;100821.09;4862275;29;20030;-69
2022/02/26 03:03:38;;;;;;;;;;;;;;;0.76;83.41;100838.59;4845513;29;19924;-64
2022/02/26 03:06:03;;;;;;;;;;;;;;;0.70;83.21;100837.22;4862150;29;20043;-67
2022/02/26 03:08:29;;;;;;;;;;;;;;;0.71;83.20;100846.75;4862078;29;19931;-62
2022/02/26 03:10:55;;;;;;;;;;;;;;;0.71;83.32;100861.63;4861742;29;19984;-62
2022/02/26 03:13:22;;;;;;;;;;;;;;;0.66;83.24;100866.34;4862137;29;19924;-66
2022/02/26 03:15:47;;;;;;;;;;;;;;;0.66;82.91;100869.81;4862270;29;19966;-68
2022/02/26 03:18:13;;;;;;;;;;;;;;;0.68;83.00;100880.19;4844592;29;19971;-67
2022/02/26 03:20:44;;;;;;;;;;;;;;;0.52;82.98;100841.81;4861678;29;19928;-64
2022/02/26 03:23:09;;;;;;;;;;;;;;;0.71;82.73;100886.06;4845284;29;19936;-67
2022/02/26 03:25:35;;;;;;;;;;;;;;;0.71;83.18;100885.22;4861452;29;20311;-66
2022/02/26 03:28:00;;;;;;;;;;;;;;;0.74;82.93;100896.38;4845207;29;20018;-64
2022/02/26 03:30:25;;;;;;;;;;;;;;;0.70;82.85;100897.50;4861801;29;19939;-66
2022/02/26 03:32:51;;;;;;;;;;;;;;;0.71;82.93;100900.97;4861658;29;19930;-68
2022/02/26 03:35:16;;;;;;;;;;;;;;;0.71;83.08;100898.34;4861706;29;19924;-67
2022/02/26 03:37:42;;;;;;;;;;;;;;;0.70;82.46;100912.38;4861395;29;20027;-65
2022/02/26 03:40:09;;;;;;;;;;;;;;;0.68;82.60;100919.50;4861444;29;19927;-67
2022/02/26 03:42:34;;;;;;;;;;;;;;;0.64;82.55;100936.34;4861530;29;19928;-66
2022/02/26 03:45:00;;;;;;;;;;;;;;;0.64;82.52;100939.81;4861536;29;19996;-69
2022/02/26 03:47:25;;;;;;;;;;;;;;;0.67;82.51;100946.66;4861099;29;19955;-66
2022/02/26 03:49:51;;;;;;;;;;;;;;;0.67;82.39;100944.88;4861394;29;19928;-67
2022/02/26 03:52:18;;;;;;;;;;;;;;;0.66;82.50;100958.91;4861439;29;20300;-70
2022/02/26 03:54:43;;;;;;;;;;;;;;;0.69;81.87;100961.34;4861008;29;19930;-67
2022/02/26 03:57:09;;;;;;;;;;;;;;;0.67;82.27;100957.97;4861522;29;20475;-67
2022/02/26 03:59:34;;;;;;;;;;;;;;;0.66;82.31;100979.88;4861498;29;20311;-65
2022/02/26 04:02:03;;;;;;;;;;;;;;;0.66;82.32;100974.66;4861280;29;19971;-63
2022/02/26 04:04:28;;;;;;;;;;;;;;;0.67;81.96;100981.56;4861041;29;20365;-69
2022/02/26 04:06:55;;;;;;;;;;;;;;;0.65;82.04;100979.97;4861063;29;19974;-67
2022/02/26 04:09:21;;;;;;;;;;;;;;;0.64;81.22;100989.63;4861019;29;19930;-64
2022/02/26 04:11:46;;;;;;;;;;;;;;;0.65;81.30;101004.41;4861302;29;20299;-65
2022/02/26 04:14:12;;;;;;;;;;;;;;;0.66;81.08;101006.09;4861375;29;20408;-65
2022/02/26 04:16:37;;;;;;;;;;;;;;;0.66;80.88;101010.50;4861168;29;19947;-69
2022/02/26 04:19:02;;;;;;;;;;;;;;;0.64;81.23;101013.22;4861125;29;20018;-65
2022/02/26 04:21:31;;;;;;;;;;;;;;;0.69;81.11;101019.00;4861133;29;20014;-64
2022/02/26 04:23:57;;;;;;;;;;;;;;;0.73;80.53;101025.75;4844111;29;19935;-64
2022/02/26 04:26:22;;;;;;;;;;;;;;;0.75;80.08;101026.50;4861191;29;20026;-69
2022/02/26 04:28:49;;;;;;;;;;;;;;;0.72;79.79;101031.94;4860819;29;20061;-71
2022/02/26 04:31:15;;;;;;;;;;;;;;;0.58;80.19;101040.66;4860701;29;19928;-67
2022/02/26 04:33:40;;;;;;;;;;;;;;;0.46;80.37;101051.00;4860706;29;19931;-69
2022/02/26 04:36:06;;;;;;;;;;;;;;;0.44;80.78;101052.88;4860439;29;20280;-65
2022/02/26 04:38:35;;;;;;;;;;;;;;;0.40;81.05;101057.44;4843925;29;19924;-66
2022/02/26 04:41:01;;;;;;;;;;;;;;;0.39;80.94;101066.25;4860330;29;20345;-67
2022/02/26 04:43:26;;;;;;;;;;;;;;;0.34;81.04;101077.94;4859055;29;19931;-67
2022/02/26 04:45:52;;;;;;;;;;;;;;;0.38;80.39;101088.13;4828862;29;19935;-65
2022/02/26 04:48:17;;;;;;;;;;;;;;;0.40;80.35;101082.81;4860365;29;19924;-68
2022/02/26 04:50:42;;;;;;;;;;;;;;;0.39;80.36;101081.97;4843769;29;19927;-64
2022/02/26 04:53:08;;;;;;;;;;;;;;;0.40;80.09;101098.53;4860175;29;20026;-67
2022/02/26 04:55:33;;;;;;;;;;;;;;;0.36;79.92;101107.50;4860120;29;19931;-68
2022/02/26 04:57:59;;;;;;;;;;;;;;;0.32;79.38;101106.84;4843568;29;19931;-65
2022/02/26 05:00:24;;;;;;;;;;;;;;;0.30;79.77;101112.16;4860182;29;19932;-65
2022/02/26 05:02:49;;;;;;;;;;;;;;;0.22;79.72;101124.84;4860285;29;19924;-67
2022/02/26 05:05:15;;;;;;;;;;;;;;;0.22;79.70;101124.84;4860235;29;19935;-64
2022/02/26 05:07:40;;;;;;;;;;;;;;;0.24;79.76;101122.97;4860016;29;19975;-65
2022/02/26 05:10:06;;;;;;;;;;;;;;;0.23;79.71;101139.63;4860274;29;19924;-69
2022/02/26 05:12:31;;;;;;;;;;;;;;;0.25;79.67;101144.78;4843567;29;20072;-65
2022/02/26 05:14:57;;;;;;;;;;;;;;;0.26;78.98;101155.16;4860305;29;19924;-63
2022/02/26 05:17:22;;;;;;;;;;;;;;;0.25;78.81;101163.94;4860137;29;20018;-66
2022/02/26 05:19:48;;;;;;;;;;;;;;;0.23;78.38;101165.81;4860212;29;19931;-64
2022/02/26 05:22:14;;;;;;;;;;;;;;;0.23;78.88;101176.28;4859664;29;19932;-68
2022/02/26 05:24:39;;;;;;;;;;;;;;;0.23;79.03;101185.94;4860544;29;19928;-69
2022/02/26 05:27:05;;;;;;;;;;;;;;;0.21;78.92;101193.88;4860045;29;19929;-65
2022/02/26 05:29:30;;;;;;;;;;;;;;;0.22;78.73;101203.41;4844110;29;19931;-67
2022/02/26 05:31:55;;;;;;;;;;;;;;;0.26;78.81;101212.78;4843322;29;19925;-64
2022/02/26 05:34:21;;;;;;;;;;;;;;;0.26;78.90;101220.66;4859940;29;19924;-65
2022/02/26 05:36:46;;;;;;;;;;;;;;;0.35;78.65;101226.34;4859706;29;19971;-64
2022/02/26 05:39:12;;;;;;;;;;;;;;;0.40;78.32;101229.53;4859594;29;19928;-68
2022/02/26 05:41:38;;;;;;;;;;;;;;;0.40;78.73;101234.78;4843001;29;19931;-66
2022/02/26 05:44:04;;;;;;;;;;;;;;;0.44;78.68;101242.38;4842945;29;19924;-63
2022/02/26 05:46:30;;;;;;;;;;;;;;;0.49;78.21;101244.72;4859271;29;20376;-65
2022/02/26 05:48:55;;;;;;;;;;;;;;;0.51;78.42;101253.34;4857899;29;19924;-65
2022/02/26 05:51:20;;;;;;;;;;;;;;;0.53;77.91;101267.22;4858895;29;19928;-66
2022/02/26 05:53:46;;;;;;;;;;;;;;;0.60;78.03;101277.28;4859100;29;19924;-67
2022/02/26 05:56:11;;;;;;;;;;;;;;;0.66;77.69;101286.56;4859194;29;19924;-66
2022/02/26 05:58:37;;;;;;;;;;;;;;;0.68;77.75;101297.81;4859220;29;19924;-65
2022/02/26 06:01:03;;;;;;;;;;;;;;;0.63;77.20;101302.47;4859652;29;19985;-66
2022/02/26 06:03:28;;;;;;;;;;;;;;;0.60;76.38;101302.66;4859432;29;20018;-66
2022/02/26 06:05:53;;;;;;;;;;;;;;;0.57;76.37;101310.66;4859043;29;19924;-65
2022/02/26 06:08:19;;;;;;;;;;;;;;;0.55;76.00;101330.88;4859309;29;20452;-65
2022/02/26 06:10:44;;;;;;;;;;;;;;;0.49;76.34;101336.44;4860052;29;19928;-64
2022/02/26 06:13:10;;;;;;;;;;;;;;;0.45;76.30;101348.03;4862683;29;20357;-64
2022/02/26 06:15:35;;;;;;;;;;;;;;;0.39;77.17;101351.00;4863547;29;19960;-66
2022/02/26 06:18:01;;;;;;;;;;;;;;;0.41;76.40;101357.00;4862875;29;19931;-69
2022/02/26 06:20:30;;;;;;;;;;;;;;;0.41;76.36;101351.75;4862741;29;20384;-64
2022/02/26 06:23:21;;;;;;;;;;;;;;;0.44;75.80;101377.78;4862701;29;20026;-68
2022/02/26 06:25:46;;;;;;;;;;;;;;;0.43;76.36;101371.69;4861486;29;20307;-67
2022/02/26 06:28:12;;;;;;;;;;;;;;;0.48;76.00;101374.91;4862999;29;19934;-67
2022/02/26 06:30:38;;;;;;;;;;;;;;;0.48;76.03;101384.56;4863106;29;19924;-66
2022/02/26 06:33:04;;;;;;;;;;;;;;;0.46;76.07;101391.66;4863078;29;20018;-66
2022/02/26 06:35:30;;;;;;;;;;;;;;;0.43;75.77;101402.31;4862734;29;19924;-63
2022/02/26 06:37:55;;;;;;;;;;;;;;;0.37;75.98;101408.72;4863226;29;19935;-67
2022/02/26 06:40:20;;;;;;;;;;;;;;;0.32;75.71;101415.13;4862751;29;19924;-69
2022/02/26 06:42:46;;;;;;;;;;;;;;;0.36;75.58;101421.91;4862677;29;19928;-70
2022/02/26 06:45:11;;;;;;;;;;;;;;;0.32;75.64;101436.09;4863117;29;19931;-70
2022/02/26 06:47:50;;;;;;;;;;;;;;;0.36;75.12;101442.88;4863989;29;19931;-70
2022/02/26 06:50:54;;;;;;;;;;;;;;;0.38;75.37;101446.25;4862137;29;19928;-72
2022/02/26 06:53:19;;;;;;;;;;;;;;;0.39;74.68;101458.44;4862174;29;19924;-69
2022/02/26 06:55:51;;;;;;;;;;;;;;;0.30;74.72;101465.00;4862660;29;19935;-73
2022/02/26 06:58:19;;;;;;;;;;;;;;;0.21;75.02;101468.91;4846266;29;19924;-70
2022/02/26 07:00:55;;;;;;;;;;;;;;;0.19;74.93;101476.00;4846789;29;19990;-67
2022/02/26 07:03:20;;;;;;;;;;;;;;;0.21;75.64;101473.31;4846206;29;19976;-68
2022/02/26 07:05:46;;;;;;;;;;;;;;;0.33;75.50;101482.34;4864330;29;19924;-73
2022/02/26 07:08:14;;;;;;;;;;;;;;;0.40;75.07;101492.41;4862440;29;19935;-77
2022/02/26 07:10:40;;;;;;;;;;;;;;;0.45;74.92;101497.41;4845925;29;19928;-71
2022/02/26 07:13:05;;;;;;;;;;;;;;;0.46;74.72;101504.34;4862273;29;19925;-70
2022/02/26 07:15:31;;;;;;;;;;;;;;;0.48;74.42;101505.94;4861798;29;20378;-68
2022/02/26 07:17:57;;;;;;;;;;;;;;;0.51;74.05;101510.19;4861863;29;19931;-67
2022/02/26 07:20:22;;;;;;;;;;;;;;;0.65;74.01;101522.59;4862171;29;19932;-70
2022/02/26 07:22:50;;;;;;;;;;;;;;;0.67;73.01;101525.97;4862888;29;19928;-77
2022/02/26 07:25:15;;;;;;;;;;;;;;;0.55;72.69;101540.53;4862897;29;20327;-73
2022/02/26 07:27:41;;;;;;;;;;;;;;;0.51;73.22;101546.88;4853055;29;19924;-71
2022/02/26 07:30:07;;;;;;;;;;;;;;;0.61;73.06;101548.97;4872450;29;19924;-70
2022/02/26 07:32:33;;;;;;;;;;;;;;;0.61;72.61;101555.97;4871471;29;19935;-69
2022/02/26 07:34:59;;;;;;;;;;;;;;;0.63;72.71;101564.59;4865693;29;19924;-69
2022/02/26 07:37:24;;;;;;;;;;;;;;;0.63;72.93;101575.09;4861737;29;19924;-62
2022/02/26 07:39:50;;;;;;;;;;;;;;;0.52;71.76;101593.13;4861052;29;19931;-63
2022/02/26 07:42:15;;;;;;;;;;;;;;;0.43;72.03;101593.59;4861004;29;19980;-62
2022/02/26 07:44:41;;;;;;;;;;;;;;;0.47;71.93;101597.75;4861379;29;19924;-66
2022/02/26 07:47:06;;;;;;;;;;;;;;;0.52;72.00;101603.59;4863007;29;19928;-68
2022/02/26 07:49:31;;;;;;;;;;;;;;;0.54;71.37;101605.22;4863270;29;20433;-70
2022/02/26 07:51:57;;;;;;;;;;;;;;;0.55;71.00;101616.56;4862274;29;19931;-64
2022/02/26 07:54:22;;;;;;;;;;;;;;;0.58;70.53;101621.66;4860861;29;20303;-68
2022/02/26 07:56:48;;;;;;;;;;;;;;;0.62;70.49;101633.69;4860905;29;19972;-67
2022/02/26 07:59:13;;;;;;;;;;;;;;;0.59;70.15;101633.84;4860956;29;19935;-66
2022/02/26 08:01:39;;;;;;;;;;;;;;;0.69;70.06;101656.03;4861157;29;20402;-67
2022/02/26 08:04:07;;;;;;;;;;;;;;;0.74;70.15;101651.41;4859953;29;20038;-69
2022/02/26 08:06:32;;;;;;;;;;;;;;;0.59;70.06;101665.31;4860520;29;19974;-66
2022/02/26 08:08:58;;;;;;;;;;;;;;;0.47;69.92;101676.38;4861203;29;19924;-65
2022/02/26 08:11:28;;;;;;;;;;;;;;;0.39;70.26;101675.91;4860707;29;19963;-71
2022/02/26 08:13:54;;;;;;;;;;;;;;;0.49;70.61;101672.75;4860911;29;19924;-69
2022/02/26 08:16:24;;;;;;;;;;;;;;;0.52;69.66;101683.09;4858301;29;20324;-67
2022/02/26 08:18:50;;;;;;;;;;;;;;;0.50;69.71;101698.03;4857544;29;19988;-69
2022/02/26 08:21:26;;;;;;;;;;;;;;;0.48;69.50;101699.03;4859613;29;19938;-71
2022/02/26 08:23:52;;;;;;;;;;;;;;;0.57;70.38;101711.69;4860221;29;19935;-66
2022/02/26 08:26:18;;;;;;;;;;;;;;;0.71;70.15;101711.88;4860359;29;19924;-68
2022/02/26 08:28:45;;;;;;;;;;;;;;;0.84;69.71;101712.09;4860217;29;20356;-68
2022/02/26 08:31:10;;;;;;;;;;;;;;;0.99;69.68;101720.97;4860203;29;19924;-73
2022/02/26 08:33:36;;;;;;;;;;;;;;;0.97;68.83;101726.31;4859961;29;20316;-68
2022/02/26 08:36:01;;;;;;;;;;;;;;;0.98;69.23;101740.25;4859623;29;19972;-67
2022/02/26 08:38:27;;;;;;;;;;;;;;;1.02;68.40;101749.66;4860495;29;19928;-70
2022/02/26 08:40:52;;;;;;;;;;;;;;;1.05;68.33;101752.13;4843818;29;19967;-73
2022/02/26 08:43:18;;;;;;;;;;;;;;;1.12;68.80;101754.38;4828960;29;19924;-71
2022/02/26 08:45:43;;;;;;;;;;;;;;;1.08;67.84;101744.09;4860144;29;19924;-70
2022/02/26 08:48:12;;;;;;;;;;;;;;;1.27;67.76;101767.66;4860027;29;20341;-71
2022/02/26 08:50:37;;;;;;;;;;;;;;;1.30;67.41;101784.09;4860012;29;20014;-69
2022/02/26 08:53:02;;;;;;;;;;;;;;;1.26;66.31;101782.53;4860083;29;20010;-70
2022/02/26 08:55:28;;;;;;;;;;;;;;;1.26;66.21;101793.03;4860371;29;20428;-72
2022/02/26 08:57:53;;;;;;;;;;;;;;;1.15;65.18;101796.19;4852642;29;20018;-69
2022/02/26 09:00:19;;;;;;;;;;;;;;;1.17;65.60;101797.00;4852722;29;19932;-69
2022/02/26 09:02:44;;;;;;;;;;;;;;;1.22;65.56;101815.13;4860323;29;20289;-68
2022/02/26 09:05:10;;;;;;;;;;;;;;;1.31;65.95;101822.53;4861034;29;19928;-69
2022/02/26 09:07:36;;;;;;;;;;;;;;;1.32;65.80;101824.22;4828820;29;19935;-69
2022/02/26 09:10:08;;;;;;;;;;;;;;;1.13;65.31;101839.16;4843636;29;20578;-71
2022/02/26 09:12:34;;;;;;;;;;;;;;;1.10;65.45;101844.56;4860300;29;19924;-71
2022/02/26 09:14:59;;;;;;;;;;;;;;;1.11;65.31;101841.88;4860649;29;19952;-78
2022/02/26 09:17:25;;;;;;;;;;;;;;;1.09;64.96;101850.75;4860327;29;19999;-77
2022/02/26 09:19:51;;;;;;;;;;;;;;;0.97;64.72;101843.47;4860140;29;19958;-72
2022/02/26 09:22:21;;;;;;;;;;;;;;;0.75;64.29;101865.50;4842484;29;19975;-74
2022/02/26 09:24:46;;;;;;;;;;;;;;;0.73;65.43;101862.09;4861530;29;19934;-74
2022/02/26 09:27:11;;;;;;;;;;;;;;;0.87;64.89;101870.16;4843432;29;20011;-72
2022/02/26 09:30:01;;;;;;;;;;;;;;;1.13;64.94;101875.91;4861726;29;19930;-78
2022/02/26 09:32:30;;;;;;;;;;;;;;;1.35;64.81;101887.06;4860301;29;20022;-73
2022/02/26 09:34:56;;;;;;;;;;;;;;;1.25;63.82;101896.31;4860507;29;20019;-75
2022/02/26 09:37:21;;;;;;;;;;;;;;;1.14;64.24;101903.84;4860568;29;20018;-74
2022/02/26 09:39:47;;;;;;;;;;;;;;;0.91;64.60;101912.84;4860271;29;20424;-76
2022/02/26 09:42:12;;;;;;;;;;;;;;;0.74;65.36;101920.63;4860072;29;19932;-76
2022/02/26 09:44:38;;;;;;;;;;;;;;;0.65;65.84;101921.91;4860123;29;19930;-76
2022/02/26 09:47:09;;;;;;;;;;;;;;;0.79;65.74;101929.13;4862150;29;20022;-75
2022/02/26 09:49:52;;;;;;;;;;;;;;;0.88;64.76;101932.19;4864087;29;19951;-77
2022/02/26 09:52:22;;;;;;;;;;;;;;;1.03;65.21;101937.63;4864258;29;19924;-75
2022/02/26 09:54:47;;;;;;;;;;;;;;;1.30;64.99;101944.16;4863873;29;19924;-74
2022/02/26 09:57:13;;;;;;;;;;;;;;;1.36;63.16;101951.75;4863975;29;19928;-73
2022/02/26 09:59:39;;;;;;;;;;;;;;;1.32;63.72;101946.72;4847081;29;19924;-75
2022/02/26 10:02:08;;;;;;;;;;;;;;;1.17;63.90;101950.94;4863795;29;19924;-74
2022/02/26 10:04:37;;;;;;;;;;;;;;;1.14;65.25;101951.06;4864973;29;19923;-74
2022/02/26 10:07:08;;;;;;;;;;;;;;;1.16;64.88;101962.38;4866144;29;19928;-73
2022/02/26 10:09:45;;;;;;;;;;;;;;;1.13;64.50;101978.22;4864660;29;19924;-72
2022/02/26 10:12:16;;;;;;;;;;;;;;;1.21;63.95;101974.34;4864337;29;20459;-73
2022/02/26 10:14:42;;;;;;;;;;;;;;;1.36;63.22;101985.88;4862862;29;19924;-72
2022/02/26 10:17:07;;;;;;;;;;;;;;;1.46;63.83;101988.91;4856783;29;20411;-72
2022/02/26 10:19:34;;;;;;;;;;;;;;;1.50;62.46;101988.69;4863467;29;19980;-73
2022/02/26 10:22:04;;;;;;;;;;;;;;;1.48;63.68;101993.16;4864295;29;19928;-71
2022/02/26 10:24:30;;;;;;;;;;;;;;;1.50;62.65;101991.31;4863846;29;19928;-72
2022/02/26 10:26:57;;;;;;;;;;;;;;;1.59;63.02;102002.28;4858579;29;19935;-72
2022/02/26 10:29:23;;;;;;;;;;;;;;;1.74;61.86;102010.28;4863799;29;20033;-72
2022/02/26 10:31:53;;;;;;;;;;;;;;;1.89;62.26;102013.91;4864202;29;19934;-74
2022/02/26 10:34:26;;;;;;;;;;;;;;;1.86;60.78;102016.69;4864449;29;19924;-77
2022/02/26 10:36:59;;;;;;;;;;;;;;;1.78;60.56;102034.63;4844790;29;19925;-74
2022/02/26 10:39:34;;;;;;;;;;;;;;;1.80;59.92;102040.63;4860519;29;19924;-73
2022/02/26 10:42:00;;;;;;;;;;;;;;;1.90;60.83;102047.13;4862267;29;19931;-73
2022/02/26 10:44:25;;;;;;;;;;;;;;;2.01;60.77;102060.56;4862767;29;19928;-73
2022/02/26 10:46:50;;;;;;;;;;;;;;;2.16;60.70;102059.84;4843648;29;19924;-76
2022/02/26 10:49:17;;;;;;;;;;;;;;;2.12;60.13;102071.44;4846314;29;19989;-72
2022/02/26 10:51:44;;;;;;;;;;;;;;;2.05;60.28;102077.91;4862881;29;19929;-72
2022/02/26 10:54:10;;;;;;;;;;;;;;;1.99;60.35;102072.09;4863253;29;20035;-70
2022/02/26 10:56:42;;;;;;;;;;;;;;;2.08;60.32;102088.28;4867918;29;19924;-74
2022/02/26 10:59:11;;;;;;;;;;;;;;;1.99;60.94;102085.22;4871810;29;19996;-72
2022/02/26 11:01:37;;;;;;;;;;;;;;;1.77;60.37;102093.31;4872046;29;20019;-73
2022/02/26 11:04:03;;;;;;;;;;;;;;;1.41;60.43;102101.13;4865999;29;19974;-74
2022/02/26 11:06:29;;;;;;;;;;;;;;;1.18;62.11;102105.69;4830721;29;19932;-73
2022/02/26 11:08:56;;;;;;;;;;;;;;;0.91;62.30;102113.03;4830530;29;19972;-73
2022/02/26 11:11:23;;;;;;;;;;;;;;;0.80;62.83;102119.63;4860898;29;19924;-71
2022/02/26 11:13:49;;;;;;;;;;;;;;;0.79;62.48;102124.03;4860996;29;19935;-75
2022/02/26 11:16:22;;;;;;;;;;;;;;;1.01;62.00;102136.22;4862745;29;19972;-75
2022/02/26 11:18:48;;;;;;;;;;;;;;;1.11;61.79;102143.59;4862677;29;19994;-68
2022/02/26 11:21:16;;;;;;;;;;;;;;;1.00;62.04;102156.34;4862566;29;19936;-72
2022/02/26 11:23:43;;;;;;;;;;;;;;;0.87;61.95;102149.94;4862381;29;19928;-69
2022/02/26 11:26:10;;;;;;;;;;;;;;;1.01;62.47;102159.81;4862609;29;19963;-71
2022/02/26 11:28:36;;;;;;;;;;;;;;;1.03;62.54;102164.09;4861246;29;20508;-65
2022/02/26 11:31:07;;;;;;;;;;;;;;;1.07;63.01;102173.53;4845252;29;20415;-64
2022/02/26 11:33:33;;;;;;;;;;;;;;;1.15;62.26;102178.41;4861819;29;20011;-64
2022/02/26 11:36:00;;;;;;;;;;;;;;;1.02;61.25;102186.00;4861748;29;20337;-65
2022/02/26 11:38:26;;;;;;;;;;;;;;;0.88;61.24;102186.59;4861878;29;20077;-65
2022/02/26 11:41:12;;;;;;;;;;;;;;;0.77;61.44;102194.06;4861042;29;20015;-66
2022/02/26 11:43:38;;;;;;;;;;;;;;;0.78;62.12;102206.25;4856540;29;19951;-65
2022/02/26 11:46:17;;;;;;;;;;;;;;;0.77;62.72;102211.56;4844395;29;19987;-65
2022/02/26 11:48:43;;;;;;;;;;;;;;;0.79;62.26;102214.97;4861014;29;19981;-63
2022/02/26 11:51:12;;;;;;;;;;;;;;;0.85;62.48;102218.16;4861086;29;19924;-65
2022/02/26 11:53:41;;;;;;;;;;;;;;;0.85;62.69;102222.56;4860991;29;19947;-69
2022/02/26 11:56:08;;;;;;;;;;;;;;;0.79;61.68;102234.16;4860688;29;20403;-62
2022/02/26 11:58:34;;;;;;;;;;;;;;;0.63;61.59;102233.13;4860869;29;20320;-61
2022/02/26 12:01:01;;;;;;;;;;;;;;;0.51;62.54;102236.22;4860511;29;19924;-62
2022/02/26 12:03:28;;;;;;;;;;;;;;;0.62;63.50;102236.66;4860050;29;19946;-65
2022/02/26 12:06:16;;;;;;;;;;;;;;;0.69;62.11;102247.75;4860202;29;20040;-65
2022/02/26 12:08:58;;;;;;;;;;;;;;;0.68;62.35;102251.28;4858571;29;19924;-64
2022/02/26 12:11:33;;;;;;;;;;;;;;;0.83;62.80;102259.34;4860516;29;19951;-65
2022/02/26 12:14:00;;;;;;;;;;;;;;;0.94;62.60;102264.16;4861040;29;20404;-72
2022/02/26 12:16:26;;;;;;;;;;;;;;;0.96;61.01;102264.97;4829417;29;19928;-72
2022/02/26 12:19:00;;;;;;;;;;;;;;;0.89;61.60;102267.00;4860421;29;19931;-70
2022/02/26 12:21:36;;;;;;;;;;;;;;;0.96;61.97;102283.31;4860807;29;20416;-70
2022/02/26 12:24:03;;;;;;;;;;;;;;;1.03;62.10;102281.28;4860454;29;20392;-63
2022/02/26 12:26:44;;;;;;;;;;;;;;;1.18;62.12;102294.63;4860571;29;19931;-63
2022/02/26 12:29:20;;;;;;;;;;;;;;;1.20;61.21;102284.06;4859641;29;20019;-63
2022/02/26 12:31:52;;;;;;;;;;;;;;;1.08;61.78;102295.06;4843939;29;19928;-73
2022/02/26 12:34:18;;;;;;;;;;;;;;;1.03;62.20;102299.66;4844857;29;19924;-70
2022/02/26 12:37:10;;;;;;;;;;;;;;;0.93;60.89;102315.78;4844974;29;19930;-69
2022/02/26 12:39:44;;;;;;;;;;;;;;;0.86;61.75;102318.69;4860110;29;20265;-69
2022/02/26 12:42:09;;;;;;;;;;;;;;;0.92;61.97;102308.81;4842528;29;19947;-69
2022/02/26 12:44:38;;;;;;;;;;;;;;;0.98;61.61;102306.88;4859981;29;20340;-69
2022/02/26 12:47:04;;;;;;;;;;;;;;;1.07;61.72;102330.94;4860495;29;19924;-70